Time;durP1;ratioP1;P1;durP2;ratioP2;P2;SDS_P1;SDS_P2;PMS_P1;PMS_P2;Temp;Humidity;BMP_temperature;BMP_pressure;BME280_temperature;BME280_humidity;BME280_pressure;Samples;Min_cycle;Max_cycle;Signal;HPM_P1;HPM_P2
2021/05/19 00:00:42;;;;;;;0.50;0.50;;;;;;;;;;5092766;28;20067;-48
2021/05/19 00:03:08;;;;;;;2.80;0.90;;;;;;;;;;5092637;28;20023;-48
2021/05/19 00:05:33;;;;;;;4.38;1.08;;;;;;;;;;5092403;28;20028;-47
2021/05/19 00:07:59;;;;;;;0.70;0.60;;;;;;;;;;5082023;28;20342;-48
2021/05/19 00:10:25;;;;;;;1.52;0.85;;;;;;;;;;5072336;28;20033;-47
2021/05/19 00:12:51;;;;;;;1.15;0.85;;;;;;;;;;5072563;28;20031;-48
2021/05/19 00:15:17;;;;;;;1.52;0.80;;;;;;;;;;5072150;28;20032;-48
2021/05/19 00:17:44;;;;;;;2.65;0.93;;;;;;;;;;5072375;28;20120;-48
2021/05/19 00:20:11;;;;;;;0.85;0.70;;;;;;;;;;5071811;28;20142;-48
2021/05/19 00:22:37;;;;;;;6.13;0.95;;;;;;;;;;5072393;28;20028;-49
2021/05/19 00:25:03;;;;;;;1.00;0.80;;;;;;;;;;5072176;28;20392;-48
2021/05/19 00:27:29;;;;;;;0.98;0.65;;;;;;;;;;5075490;28;20096;-48
2021/05/19 00:29:56;;;;;;;1.77;0.77;;;;;;;;;;5092104;28;20047;-48
2021/05/19 00:32:22;;;;;;;2.35;0.80;;;;;;;;;;5090993;28;20016;-48
2021/05/19 00:34:51;;;;;;;3.40;0.80;;;;;;;;;;5091979;28;20024;-48
2021/05/19 00:37:17;;;;;;;0.60;0.60;;;;;;;;;;5092546;28;20028;-48
2021/05/19 00:39:44;;;;;;;1.40;0.70;;;;;;;;;;5091768;28;20468;-47
2021/05/19 00:42:11;;;;;;;0.73;0.60;;;;;;;;;;5091531;28;20031;-48
2021/05/19 00:44:37;;;;;;;4.15;1.05;;;;;;;;;;5091768;28;20025;-48
2021/05/19 00:47:03;;;;;;;1.23;0.60;;;;;;;;;;5092122;28;20125;-48
2021/05/19 00:49:29;;;;;;;0.55;0.55;;;;;;;;;;5091895;28;20039;-49
2021/05/19 00:51:55;;;;;;;0.65;0.65;;;;;;;;;;5091947;28;20023;-48
2021/05/19 00:54:21;;;;;;;0.60;0.52;;;;;;;;;;5091858;28;20119;-48
2021/05/19 00:56:47;;;;;;;0.73;0.73;;;;;;;;;;5091839;28;20027;-48
2021/05/19 00:59:13;;;;;;;1.30;0.88;;;;;;;;;;5091510;28;20032;-47
2021/05/19 01:01:40;;;;;;;0.50;0.50;;;;;;;;;;5091254;28;20096;-48
2021/05/19 01:04:06;;;;;;;0.63;0.60;;;;;;;;;;5091875;28;20020;-48
2021/05/19 01:06:43;;;;;;;1.48;0.68;;;;;;;;;;5091575;28;20469;-47
2021/05/19 01:11:55;;;;;;;1.58;0.35;;;;;;;;;;5091593;28;20484;-48
2021/05/19 01:14:21;;;;;;;0.95;0.57;;;;;;;;;;5091086;28;20032;-47
2021/05/19 01:16:47;;;;;;;0.60;0.60;;;;;;;;;;5091642;28;20043;-48
2021/05/19 01:19:19;;;;;;;3.25;0.68;;;;;;;;;;5091645;28;20028;-48
2021/05/19 01:21:46;;;;;;;0.80;0.80;;;;;;;;;;5091128;28;20028;-47
2021/05/19 01:24:12;;;;;;;0.80;0.55;;;;;;;;;;5091313;28;20024;-48
2021/05/19 01:26:39;;;;;;;0.93;0.57;;;;;;;;;;5091256;28;20048;-47
2021/05/19 01:29:06;;;;;;;4.50;0.90;;;;;;;;;;5091169;28;20461;-48
2021/05/19 01:31:32;;;;;;;1.15;0.70;;;;;;;;;;5091349;28;20348;-48
2021/05/19 01:33:58;;;;;;;0.85;0.70;;;;;;;;;;5091380;28;20073;-48
2021/05/19 01:36:24;;;;;;;0.65;0.50;;;;;;;;;;5091480;28;20024;-47
2021/05/19 01:38:50;;;;;;;0.85;0.63;;;;;;;;;;5091032;28;20016;-48
2021/05/19 01:41:16;;;;;;;1.38;0.90;;;;;;;;;;5090434;28;20437;-48
2021/05/19 01:43:42;;;;;;;1.75;1.08;;;;;;;;;;5073739;28;20070;-48
2021/05/19 01:46:08;;;;;;;3.38;0.90;;;;;;;;;;5077846;28;20028;-47
2021/05/19 01:48:35;;;;;;;0.70;0.63;;;;;;;;;;5077840;28;20036;-48
2021/05/19 01:51:01;;;;;;;2.67;0.90;;;;;;;;;;5077154;28;20488;-48
2021/05/19 01:53:28;;;;;;;2.13;1.20;;;;;;;;;;5077654;28;20040;-48
2021/05/19 01:55:55;;;;;;;4.88;0.90;;;;;;;;;;5077309;28;20596;-47
2021/05/19 01:58:22;;;;;;;1.52;0.88;;;;;;;;;;5077840;28;20050;-48
2021/05/19 02:00:48;;;;;;;1.02;0.90;;;;;;;;;;5077377;28;20032;-48
2021/05/19 02:03:14;;;;;;;3.90;1.25;;;;;;;;;;5077539;28;20024;-47
2021/05/19 02:05:40;;;;;;;1.58;1.15;;;;;;;;;;5095040;28;20420;-48
2021/05/19 02:08:07;;;;;;;4.07;1.05;;;;;;;;;;5098132;28;20344;-49
2021/05/19 02:10:33;;;;;;;1.10;1.00;;;;;;;;;;5097264;28;20036;-48
2021/05/19 02:13:00;;;;;;;2.35;0.85;;;;;;;;;;5098250;28;20089;-48
2021/05/19 02:15:26;;;;;;;1.10;0.80;;;;;;;;;;5097619;28;20360;-48
2021/05/19 02:17:52;;;;;;;1.83;0.93;;;;;;;;;;5097867;28;20295;-48
2021/05/19 02:20:20;;;;;;;1.67;0.60;;;;;;;;;;5097630;28;20043;-48
2021/05/19 02:22:47;;;;;;;0.80;0.80;;;;;;;;;;5089357;28;20041;-48
2021/05/19 02:25:13;;;;;;;1.23;0.90;;;;;;;;;;5097403;28;20028;-48
2021/05/19 02:27:39;;;;;;;0.70;0.70;;;;;;;;;;5093501;28;20020;-47
2021/05/19 02:30:07;;;;;;;0.90;0.90;;;;;;;;;;5076692;28;20476;-47
2021/05/19 02:32:33;;;;;;;4.25;1.00;;;;;;;;;;5076799;28;20025;-48
2021/05/19 02:35:00;;;;;;;0.95;0.80;;;;;;;;;;5077180;28;20094;-48
2021/05/19 02:37:26;;;;;;;1.60;0.90;;;;;;;;;;5077439;28;20032;-48
2021/05/19 02:39:52;;;;;;;0.65;0.65;;;;;;;;;;5085880;28;20039;-48
2021/05/19 02:42:18;;;;;;;1.65;0.93;;;;;;;;;;5096879;28;20503;-48
2021/05/19 02:44:44;;;;;;;1.90;0.75;;;;;;;;;;5097485;28;20339;-49
2021/05/19 02:47:10;;;;;;;0.90;0.90;;;;;;;;;;5097500;28;20328;-48
2021/05/19 02:49:36;;;;;;;3.00;1.17;;;;;;;;;;5097158;28;20024;-48
2021/05/19 02:52:03;;;;;;;4.15;1.05;;;;;;;;;;5097292;28;20099;-48
2021/05/19 02:54:29;;;;;;;1.17;0.88;;;;;;;;;;5097186;28;20020;-48
2021/05/19 02:56:55;;;;;;;0.80;0.70;;;;;;;;;;5093733;28;20027;-48
2021/05/19 02:59:21;;;;;;;2.28;0.98;;;;;;;;;;5093707;28;20024;-47
2021/05/19 03:01:47;;;;;;;1.67;0.90;;;;;;;;;;5093781;28;20078;-48
2021/05/19 03:04:13;;;;;;;0.77;0.77;;;;;;;;;;5093744;28;20020;-47
2021/05/19 03:06:39;;;;;;;1.33;0.77;;;;;;;;;;5094240;28;20020;-48
2021/05/19 03:09:05;;;;;;;1.55;1.00;;;;;;;;;;5073916;28;20024;-48
2021/05/19 03:11:31;;;;;;;2.65;0.85;;;;;;;;;;5073313;28;20032;-48
2021/05/19 03:13:57;;;;;;;0.68;0.68;;;;;;;;;;5073332;28;20021;-47
2021/05/19 03:16:26;;;;;;;3.75;1.10;;;;;;;;;;5073757;28;20044;-49
2021/05/19 03:18:52;;;;;;;0.80;0.70;;;;;;;;;;5073475;28;20029;-48
2021/05/19 03:21:18;;;;;;;1.00;0.90;;;;;;;;;;5072705;28;20032;-48
2021/05/19 03:23:44;;;;;;;0.70;0.70;;;;;;;;;;5073195;28;20492;-48
2021/05/19 03:26:10;;;;;;;2.20;1.00;;;;;;;;;;5073030;28;20449;-48
2021/05/19 03:28:37;;;;;;;1.67;0.80;;;;;;;;;;5085197;28;20109;-48
2021/05/19 03:31:03;;;;;;;2.70;1.20;;;;;;;;;;5093373;28;20118;-48
2021/05/19 03:33:29;;;;;;;0.75;0.75;;;;;;;;;;5093381;28;20040;-48
2021/05/19 03:35:55;;;;;;;1.55;0.68;;;;;;;;;;5093524;28;20024;-48
2021/05/19 03:38:21;;;;;;;0.65;0.60;;;;;;;;;;5093563;28;20074;-48
2021/05/19 03:40:47;;;;;;;0.70;0.70;;;;;;;;;;5092375;28;20024;-48
2021/05/19 03:43:14;;;;;;;0.73;0.65;;;;;;;;;;5093167;28;20051;-48
2021/05/19 03:45:40;;;;;;;0.70;0.70;;;;;;;;;;5092641;28;20024;-48
2021/05/19 03:48:06;;;;;;;0.55;0.55;;;;;;;;;;5092360;28;20016;-48
2021/05/19 03:50:33;;;;;;;0.50;0.50;;;;;;;;;;5092370;28;20027;-48
2021/05/19 03:53:00;;;;;;;1.45;0.77;;;;;;;;;;5092382;28;20032;-48
2021/05/19 03:55:27;;;;;;;1.95;0.60;;;;;;;;;;5092512;28;20020;-48
2021/05/19 03:57:53;;;;;;;0.63;0.63;;;;;;;;;;5092795;28;20024;-48
2021/05/19 04:00:21;;;;;;;1.42;0.90;;;;;;;;;;5092680;28;20028;-47
2021/05/19 04:02:50;;;;;;;1.23;0.80;;;;;;;;;;5092998;28;20021;-47
2021/05/19 04:05:19;;;;;;;1.85;0.80;;;;;;;;;;5092372;28;20028;-47
2021/05/19 04:07:45;;;;;;;0.93;0.60;;;;;;;;;;5092332;28;20034;-48
2021/05/19 04:10:11;;;;;;;3.35;0.60;;;;;;;;;;5092539;28;20056;-48
2021/05/19 04:12:37;;;;;;;1.50;0.65;;;;;;;;;;5092816;28;20043;-48
2021/05/19 04:15:04;;;;;;;0.57;0.57;;;;;;;;;;5092488;28;20024;-48
2021/05/19 04:17:30;;;;;;;0.60;0.60;;;;;;;;;;5093023;28;20400;-48
2021/05/19 04:19:56;;;;;;;0.57;0.57;;;;;;;;;;5092194;28;20492;-47
2021/05/19 04:22:22;;;;;;;0.77;0.77;;;;;;;;;;5092115;28;20020;-48
2021/05/19 04:24:48;;;;;;;0.60;0.60;;;;;;;;;;5092624;28;20377;-48
2021/05/19 04:27:14;;;;;;;0.60;0.60;;;;;;;;;;5092534;28;20021;-48
2021/05/19 04:29:40;;;;;;;0.60;0.60;;;;;;;;;;5090955;28;20080;-48
2021/05/19 04:32:06;;;;;;;1.00;0.75;;;;;;;;;;5071955;28;20521;-48
2021/05/19 04:34:36;;;;;;;1.60;0.77;;;;;;;;;;5088362;28;20057;-47
2021/05/19 04:37:02;;;;;;;0.50;0.50;;;;;;;;;;5091442;28;20103;-48
2021/05/19 04:39:28;;;;;;;0.60;0.60;;;;;;;;;;5092377;28;20131;-47
2021/05/19 04:41:54;;;;;;;1.85;0.90;;;;;;;;;;5091212;28;20027;-48
2021/05/19 04:44:20;;;;;;;2.25;1.27;;;;;;;;;;5092074;28;20028;-48
2021/05/19 04:46:46;;;;;;;1.52;1.00;;;;;;;;;;5092144;28;20472;-48
2021/05/19 04:49:13;;;;;;;1.92;1.00;;;;;;;;;;5091344;28;20021;-48
2021/05/19 04:51:39;;;;;;;1.35;1.25;;;;;;;;;;5091770;28;20012;-47
2021/05/19 04:54:05;;;;;;;1.55;0.93;;;;;;;;;;5091563;28;20028;-48
2021/05/19 04:56:31;;;;;;;1.30;0.73;;;;;;;;;;5092088;28;20027;-48
2021/05/19 04:58:57;;;;;;;0.90;0.90;;;;;;;;;;5091902;28;20350;-48
2021/05/19 05:01:23;;;;;;;1.48;0.82;;;;;;;;;;5091334;28;20042;-48
2021/05/19 05:03:49;;;;;;;0.85;0.85;;;;;;;;;;5091580;28;20073;-48
2021/05/19 05:06:15;;;;;;;0.80;0.80;;;;;;;;;;5091365;28;20031;-48
2021/05/19 05:08:41;;;;;;;1.45;1.00;;;;;;;;;;5091671;28;20020;-48
2021/05/19 05:11:07;;;;;;;0.63;0.63;;;;;;;;;;5091138;28;20024;-46
2021/05/19 05:13:33;;;;;;;0.95;0.85;;;;;;;;;;5091652;28;20031;-48
2021/05/19 05:15:59;;;;;;;1.50;0.75;;;;;;;;;;5091688;28;20039;-48
2021/05/19 05:18:25;;;;;;;2.38;1.05;;;;;;;;;;5091005;28;20031;-48
2021/05/19 05:20:51;;;;;;;1.17;0.98;;;;;;;;;;5090066;28;20457;-47
2021/05/19 05:23:18;;;;;;;0.95;0.85;;;;;;;;;;5091584;28;20111;-47
2021/05/19 05:25:44;;;;;;;1.42;0.90;;;;;;;;;;5091439;28;20032;-48
2021/05/19 05:28:10;;;;;;;0.63;0.63;;;;;;;;;;5091521;28;20016;-48
2021/05/19 05:30:36;;;;;;;0.90;0.90;;;;;;;;;;5090633;28;20105;-47
2021/05/19 05:33:02;;;;;;;2.00;1.05;;;;;;;;;;5091632;28;20388;-48
2021/05/19 05:35:28;;;;;;;1.55;0.70;;;;;;;;;;5091180;28;20050;-48
2021/05/19 05:37:54;;;;;;;2.50;0.90;;;;;;;;;;5091079;28;20032;-48
2021/05/19 05:40:20;;;;;;;1.20;1.00;;;;;;;;;;5090539;28;20028;-48
2021/05/19 05:42:46;;;;;;;1.33;0.75;;;;;;;;;;5091393;28;20046;-48
2021/05/19 05:45:13;;;;;;;1.02;0.65;;;;;;;;;;5091008;28;20024;-47
2021/05/19 05:47:40;;;;;;;1.33;1.00;;;;;;;;;;5091288;28;20115;-48
2021/05/19 05:50:06;;;;;;;0.98;0.98;;;;;;;;;;5090575;28;20050;-47
2021/05/19 05:52:32;;;;;;;1.38;1.00;;;;;;;;;;5091335;28;20065;-48
2021/05/19 05:54:58;;;;;;;1.23;1.00;;;;;;;;;;5091294;28;20069;-48
2021/05/19 05:57:24;;;;;;;1.00;0.90;;;;;;;;;;5091085;28;20028;-48
2021/05/19 05:59:50;;;;;;;1.98;1.10;;;;;;;;;;5090837;28;20040;-48
2021/05/19 06:02:16;;;;;;;1.88;1.10;;;;;;;;;;5090792;28;20027;-48
2021/05/19 06:04:42;;;;;;;2.45;1.00;;;;;;;;;;5090402;28;20024;-48
2021/05/19 06:07:08;;;;;;;1.38;0.80;;;;;;;;;;5090683;28;20437;-47
2021/05/19 06:09:34;;;;;;;1.13;0.88;;;;;;;;;;5091141;28;20043;-48
2021/05/19 06:12:00;;;;;;;0.95;0.82;;;;;;;;;;5090842;28;20020;-48
2021/05/19 06:14:26;;;;;;;1.40;0.75;;;;;;;;;;5091125;28;20107;-48
2021/05/19 06:16:52;;;;;;;1.90;1.00;;;;;;;;;;5090617;28;20024;-47
2021/05/19 06:19:18;;;;;;;0.90;0.88;;;;;;;;;;5090559;28;20074;-48
2021/05/19 06:21:44;;;;;;;1.13;0.90;;;;;;;;;;5090592;28;20028;-47
2021/05/19 06:24:10;;;;;;;1.27;1.05;;;;;;;;;;5090904;28;20020;-48
2021/05/19 06:26:37;;;;;;;5.75;1.27;;;;;;;;;;5091273;28;20072;-48
2021/05/19 06:29:03;;;;;;;2.97;0.93;;;;;;;;;;5090666;28;20032;-48
2021/05/19 06:31:29;;;;;;;0.88;0.88;;;;;;;;;;5093022;28;20079;-48
2021/05/19 06:33:55;;;;;;;1.90;1.02;;;;;;;;;;5094174;28;20461;-47
2021/05/19 06:36:21;;;;;;;3.75;0.80;;;;;;;;;;5094493;28;20073;-48
2021/05/19 06:38:47;;;;;;;1.33;1.08;;;;;;;;;;5094722;28;20426;-48
2021/05/19 06:41:13;;;;;;;0.80;0.80;;;;;;;;;;5093917;28;20110;-48
2021/05/19 06:43:39;;;;;;;0.85;0.85;;;;;;;;;;5094407;28;20342;-48
2021/05/19 06:46:05;;;;;;;1.10;1.00;;;;;;;;;;5094418;28;20048;-47
2021/05/19 06:48:31;;;;;;;1.25;1.02;;;;;;;;;;5094189;28;20426;-48
2021/05/19 06:50:57;;;;;;;2.38;1.35;;;;;;;;;;5093718;28;20028;-46
2021/05/19 06:53:23;;;;;;;3.15;1.10;;;;;;;;;;5094402;28;20051;-48
2021/05/19 06:55:51;;;;;;;6.28;1.58;;;;;;;;;;5094243;28;20024;-48
2021/05/19 06:58:17;;;;;;;3.83;1.10;;;;;;;;;;5094165;28;20066;-47
2021/05/19 07:00:44;;;;;;;1.92;1.10;;;;;;;;;;5093220;28;20040;-48
2021/05/19 07:03:09;;;;;;;1.63;1.30;;;;;;;;;;5094290;28;20016;-48
2021/05/19 07:05:36;;;;;;;2.45;1.00;;;;;;;;;;5093674;28;20039;-47
2021/05/19 07:08:02;;;;;;;1.20;1.10;;;;;;;;;;5083165;28;20047;-48
2021/05/19 07:10:28;;;;;;;2.10;1.50;;;;;;;;;;5073138;28;20031;-47
2021/05/19 07:12:54;;;;;;;2.58;1.35;;;;;;;;;;5073863;28;20021;-47
2021/05/19 07:15:22;;;;;;;1.63;1.15;;;;;;;;;;5073261;28;20025;-48
2021/05/19 07:17:48;;;;;;;1.42;1.33;;;;;;;;;;5073352;28;20540;-48
2021/05/19 07:20:14;;;;;;;1.75;1.40;;;;;;;;;;5073538;28;20418;-48
2021/05/19 07:22:40;;;;;;;1.10;1.00;;;;;;;;;;5073494;28;20109;-48
2021/05/19 07:25:06;;;;;;;2.03;1.20;;;;;;;;;;5073479;28;20021;-48
2021/05/19 07:27:32;;;;;;;3.83;1.17;;;;;;;;;;5073331;28;20123;-48
2021/05/19 07:29:58;;;;;;;1.92;1.42;;;;;;;;;;5073357;28;20028;-48
2021/05/19 07:32:25;;;;;;;2.22;1.33;;;;;;;;;;5072904;28;20609;-48
2021/05/19 07:34:51;;;;;;;2.60;1.73;;;;;;;;;;5073471;28;20074;-49
2021/05/19 07:37:17;;;;;;;1.80;1.60;;;;;;;;;;5073020;28;20120;-48
2021/05/19 07:39:43;;;;;;;2.30;1.30;;;;;;;;;;5080127;28;20045;-48
2021/05/19 07:42:16;;;;;;;3.15;1.80;;;;;;;;;;5091628;28;20028;-48
2021/05/19 07:44:42;;;;;;;4.80;1.80;;;;;;;;;;5091761;28;20055;-48
2021/05/19 07:47:08;;;;;;;2.13;1.52;;;;;;;;;;5093415;28;20047;-48
2021/05/19 07:49:34;;;;;;;2.00;1.40;;;;;;;;;;5093567;28;20110;-49
2021/05/19 07:52:00;;;;;;;3.00;1.45;;;;;;;;;;5093250;28;20025;-48
2021/05/19 07:54:28;;;;;;;1.70;1.60;;;;;;;;;;5093241;28;20024;-48
2021/05/19 07:57:07;;;;;;;1.67;1.50;;;;;;;;;;5093072;28;20028;-47
2021/05/19 07:59:34;;;;;;;1.95;1.67;;;;;;;;;;5093224;28;20144;-48
2021/05/19 08:02:08;;;;;;;1.67;1.58;;;;;;;;;;5092554;28;20024;-49
2021/05/19 08:04:35;;;;;;;5.57;1.38;;;;;;;;;;5092680;28;20043;-48
2021/05/19 08:07:02;;;;;;;2.20;1.70;;;;;;;;;;5089999;28;20031;-48
2021/05/19 08:09:28;;;;;;;1.75;1.65;;;;;;;;;;5072445;28;20112;-49
2021/05/19 08:11:55;;;;;;;4.47;1.83;;;;;;;;;;5072056;28;20377;-48
2021/05/19 08:14:21;;;;;;;2.10;1.10;;;;;;;;;;5072714;28;20029;-49
2021/05/19 08:16:47;;;;;;;2.92;1.40;;;;;;;;;;5072716;28;20039;-48
2021/05/19 08:19:13;;;;;;;2.83;1.65;;;;;;;;;;5071696;28;20020;-48
2021/05/19 08:21:40;;;;;;;4.53;1.60;;;;;;;;;;5071596;28;20083;-48
2021/05/19 08:24:07;;;;;;;2.40;1.90;;;;;;;;;;5071982;28;20024;-47
2021/05/19 08:26:33;;;;;;;2.38;1.50;;;;;;;;;;5072114;28;20044;-48
2021/05/19 08:28:59;;;;;;;3.72;1.50;;;;;;;;;;5071676;28;20442;-47
2021/05/19 08:31:25;;;;;;;4.15;1.48;;;;;;;;;;5071360;28;20036;-48
2021/05/19 08:33:52;;;;;;;2.72;1.60;;;;;;;;;;5074113;28;20074;-48
2021/05/19 08:36:18;;;;;;;2.78;1.77;;;;;;;;;;5070531;28;20035;-48
2021/05/19 08:38:44;;;;;;;1.90;1.55;;;;;;;;;;5071670;28;20028;-48
2021/05/19 08:41:10;;;;;;;2.22;1.77;;;;;;;;;;5090372;28;20039;-47
2021/05/19 08:43:37;;;;;;;2.55;1.92;;;;;;;;;;5092115;28;20016;-48
2021/05/19 08:46:10;;;;;;;2.70;1.55;;;;;;;;;;5092045;28;20036;-47
2021/05/19 08:48:36;;;;;;;2.05;1.70;;;;;;;;;;5091885;28;20446;-48
2021/05/19 08:51:03;;;;;;;5.63;1.75;;;;;;;;;;5091740;28;20103;-47
2021/05/19 08:53:29;;;;;;;4.68;1.75;;;;;;;;;;5090704;28;20362;-48
2021/05/19 08:55:55;;;;;;;2.90;1.63;;;;;;;;;;5091775;28;20433;-48
2021/05/19 08:58:22;;;;;;;2.30;1.67;;;;;;;;;;5091651;28;20024;-48
2021/05/19 09:00:48;;;;;;;10.65;2.03;;;;;;;;;;5091644;28;20058;-48
2021/05/19 09:03:14;;;;;;;3.15;1.52;;;;;;;;;;5091903;28;20401;-48
2021/05/19 09:05:41;;;;;;;4.47;2.03;;;;;;;;;;5091485;28;20479;-47
2021/05/19 09:08:09;;;;;;;3.70;1.77;;;;;;;;;;5090986;28;20078;-48
2021/05/19 09:10:35;;;;;;;1.52;1.40;;;;;;;;;;5091266;28;20457;-48
2021/05/19 09:13:01;;;;;;;5.50;2.03;;;;;;;;;;5091861;28;20020;-48
2021/05/19 09:15:44;;;;;;;1.95;1.75;;;;;;;;;;5091725;28;20267;-48
2021/05/19 09:18:10;;;;;;;3.92;1.70;;;;;;;;;;5091453;28;20105;-47
2021/05/19 09:20:46;;;;;;;1.95;1.52;;;;;;;;;;5090033;28;20039;-47
2021/05/19 09:23:22;;;;;;;2.83;1.48;;;;;;;;;;5091436;28;20028;-48
2021/05/19 09:26:10;;;;;;;4.18;1.98;;;;;;;;;;5091188;28;20028;-47
2021/05/19 09:28:36;;;;;;;2.30;1.80;;;;;;;;;;5091397;28;20035;-48
2021/05/19 09:31:02;;;;;;;2.50;2.30;;;;;;;;;;5091101;28;20032;-48
2021/05/19 09:33:28;;;;;;;2.63;1.85;;;;;;;;;;5090966;28;20036;-48
2021/05/19 09:36:15;;;;;;;2.90;1.77;;;;;;;;;;5091205;28;20555;-47
2021/05/19 09:38:41;;;;;;;2.60;1.40;;;;;;;;;;5091130;28;20066;-48
2021/05/19 09:41:16;;;;;;;2.17;1.67;;;;;;;;;;5091144;28;20067;-48
2021/05/19 09:43:43;;;;;;;3.03;1.95;;;;;;;;;;5090923;28;20501;-48
2021/05/19 09:46:22;;;;;;;1.58;1.42;;;;;;;;;;5091265;28;20036;-48
2021/05/19 09:48:49;;;;;;;2.08;1.88;;;;;;;;;;5091164;28;20139;-48
2021/05/19 09:51:28;;;;;;;2.25;1.88;;;;;;;;;;5091021;28;20055;-48
2021/05/19 09:53:54;;;;;;;2.95;1.60;;;;;;;;;;5090845;28;20093;-47
2021/05/19 09:56:20;;;;;;;2.25;1.60;;;;;;;;;;5091336;28;20032;-48
2021/05/19 09:58:47;;;;;;;1.70;1.42;;;;;;;;;;5091108;28;20039;-47
2021/05/19 10:01:13;;;;;;;1.10;0.80;;;;;;;;;;5090881;28;20032;-47
2021/05/19 10:03:40;;;;;;;0.70;0.70;;;;;;;;;;5091281;28;20078;-48
2021/05/19 10:06:25;;;;;;;0.50;0.50;;;;;;;;;;5094393;28;20024;-48
2021/05/19 10:08:51;;;;;;;0.57;0.57;;;;;;;;;;5077305;28;20406;-48
2021/05/19 10:11:18;;;;;;;0.65;0.65;;;;;;;;;;5074672;28;20064;-48
2021/05/19 10:13:45;;;;;;;0.50;0.50;;;;;;;;;;5074748;28;20033;-48
2021/05/19 10:16:15;;;;;;;2.05;0.80;;;;;;;;;;5074557;28;20036;-48
2021/05/19 10:18:44;;;;;;;0.75;0.70;;;;;;;;;;5074419;28;20021;-48
2021/05/19 10:21:10;;;;;;;0.80;0.80;;;;;;;;;;5073916;28;20055;-47
2021/05/19 10:23:38;;;;;;;0.93;0.82;;;;;;;;;;5074520;28;20048;-47
2021/05/19 10:26:06;;;;;;;1.02;0.70;;;;;;;;;;5074851;28;20040;-48
2021/05/19 10:28:45;;;;;;;3.20;0.73;;;;;;;;;;5074199;28;20446;-48
2021/05/19 10:31:25;;;;;;;0.90;0.80;;;;;;;;;;5074160;28;20028;-48
2021/05/19 10:33:52;;;;;;;0.82;0.77;;;;;;;;;;5073942;28;20454;-48
2021/05/19 10:36:24;;;;;;;5.97;1.25;;;;;;;;;;5074632;28;20039;-48
2021/05/19 10:39:13;;;;;;;0.95;0.93;;;;;;;;;;5074297;28;20052;-48
2021/05/19 10:41:44;;;;;;;1.42;1.15;;;;;;;;;;5079103;28;20434;-48
2021/05/19 10:44:21;;;;;;;1.27;0.88;;;;;;;;;;5094149;28;20035;-48
2021/05/19 10:46:52;;;;;;;2.88;1.25;;;;;;;;;;5094637;28;20062;-48
2021/05/19 10:49:19;;;;;;;2.88;0.93;;;;;;;;;;5094772;28;20098;-48
2021/05/19 10:51:56;;;;;;;1.77;0.90;;;;;;;;;;5094090;28;20020;-48
2021/05/19 10:57:30;;;;;;;0.98;0.75;;;;;;;;;;5094244;28;20035;-47
2021/05/19 11:00:21;;;;;;;1.38;1.25;;;;;;;;;;5093830;28;20040;-47
2021/05/19 11:02:47;;;;;;;;;;;;;;;;;;5094226;28;20055;-47
2021/05/19 11:05:13;;;;;;;0.68;0.68;;;;;;;;;;5093013;28;20012;-48
2021/05/19 11:07:59;;;;;;;2.88;2.60;;;;;;;;;;5086443;28;20031;-47
2021/05/19 11:10:30;;;;;;;0.60;0.60;;;;;;;;;;5073374;28;20031;-47
2021/05/19 11:12:56;;;;;;;1.02;0.60;;;;;;;;;;5073811;28;20027;-47
2021/05/19 11:15:43;;;;;;;1.10;1.00;;;;;;;;;;5073473;28;20056;-48
2021/05/19 11:19:19;;;;;;;0.73;0.73;;;;;;;;;;5073420;28;20040;-48
2021/05/19 11:21:19;;;;;;;2.30;0.77;;;;;;;;;;5072649;28;20041;-48
2021/05/19 11:24:07;;;;;;;1.15;0.70;;;;;;;;;;5073401;28;20033;-48
2021/05/19 11:26:50;;;;;;;2.28;0.90;;;;;;;;;;5073681;28;20020;-48
2021/05/19 11:29:17;;;;;;;0.98;0.98;;;;;;;;;;5073327;28;20032;-48
2021/05/19 11:31:47;;;;;;;1.67;1.17;;;;;;;;;;5073281;28;20044;-48
2021/05/19 11:34:20;;;;;;;0.90;0.90;;;;;;;;;;5073033;28;20370;-49
2021/05/19 11:36:52;;;;;;;1.55;1.00;;;;;;;;;;5073469;28;20028;-48
2021/05/19 11:39:21;;;;;;;2.63;0.90;;;;;;;;;;5077243;28;20031;-48
2021/05/19 11:41:48;;;;;;;8.30;0.95;;;;;;;;;;5092866;28;20078;-47
2021/05/19 11:44:33;;;;;;;1.55;1.00;;;;;;;;;;5093291;28;20062;-47
2021/05/19 11:46:59;;;;;;;0.80;0.80;;;;;;;;;;5093609;28;20035;-48
2021/05/19 11:49:25;;;;;;;2.63;1.10;;;;;;;;;;5093547;28;20028;-47
2021/05/19 11:51:51;;;;;;;1.42;0.80;;;;;;;;;;5092947;28;20108;-47
2021/05/19 11:54:17;;;;;;;1.00;0.82;;;;;;;;;;5093094;28;20418;-48
2021/05/19 11:56:45;;;;;;;0.88;0.88;;;;;;;;;;5093193;28;20024;-48
2021/05/19 11:59:14;;;;;;;1.77;0.95;;;;;;;;;;5093008;28;20030;-47
2021/05/19 12:01:52;;;;;;;2.00;0.85;;;;;;;;;;5092860;28;20028;-48
2021/05/19 12:04:18;;;;;;;1.50;0.70;;;;;;;;;;5093117;28;20017;-47
2021/05/19 12:06:48;;;;;;;0.63;0.63;;;;;;;;;;5092776;28;20099;-49
2021/05/19 12:09:15;;;;;;;1.70;0.80;;;;;;;;;;5092465;28;20492;-47
2021/05/19 12:11:41;;;;;;;2.30;0.88;;;;;;;;;;5092498;28;20039;-48
2021/05/19 12:14:10;;;;;;;1.67;0.80;;;;;;;;;;5092732;28;20016;-48
2021/05/19 12:16:43;;;;;;;1.63;1.00;;;;;;;;;;5093152;28;20024;-47
2021/05/19 12:19:09;;;;;;;1.48;0.98;;;;;;;;;;5092630;28;20042;-47
2021/05/19 12:21:39;;;;;;;0.95;0.80;;;;;;;;;;5092215;28;20035;-48
2021/05/19 12:24:06;;;;;;;4.50;0.90;;;;;;;;;;5092331;28;20110;-47
2021/05/19 12:26:32;;;;;;;2.10;1.05;;;;;;;;;;5092660;28;20024;-48
2021/05/19 12:28:58;;;;;;;1.98;0.90;;;;;;;;;;5092107;28;20508;-47
2021/05/19 12:31:26;;;;;;;2.45;1.10;;;;;;;;;;5092153;28;20038;-48
2021/05/19 12:33:52;;;;;;;1.20;0.95;;;;;;;;;;5092295;28;20023;-47
2021/05/19 12:36:24;;;;;;;1.38;1.00;;;;;;;;;;5092085;28;20318;-47
2021/05/19 12:38:50;;;;;;;0.98;0.80;;;;;;;;;;5092208;28;20035;-48
2021/05/19 12:41:35;;;;;;;4.32;1.15;;;;;;;;;;5091887;28;20028;-48
2021/05/19 12:44:01;;;;;;;2.30;1.15;;;;;;;;;;5092455;28;20357;-48
2021/05/19 12:46:27;;;;;;;2.67;0.80;;;;;;;;;;5092280;28;20081;-47
2021/05/19 12:48:53;;;;;;;3.15;0.88;;;;;;;;;;5091818;28;20313;-48
2021/05/19 12:51:19;;;;;;;0.47;0.47;;;;;;;;;;5091842;28;20032;-48
2021/05/19 12:53:47;;;;;;;2.78;0.65;;;;;;;;;;5092244;28;20107;-47
2021/05/19 12:56:16;;;;;;;1.35;0.75;;;;;;;;;;5091816;28;20028;-48
2021/05/19 12:58:51;;;;;;;3.58;0.90;;;;;;;;;;5092156;28;20073;-48
2021/05/19 13:01:18;;;;;;;1.10;0.90;;;;;;;;;;5091384;28;20032;-48
2021/05/19 13:03:45;;;;;;;1.05;0.90;;;;;;;;;;5091787;28;20020;-48
2021/05/19 13:06:11;;;;;;;4.22;0.57;;;;;;;;;;5091669;28;20055;-48
2021/05/19 13:08:37;;;;;;;1.33;0.77;;;;;;;;;;5075840;28;20059;-47
2021/05/19 13:11:07;;;;;;;0.60;0.60;;;;;;;;;;5071020;28;20107;-47
2021/05/19 13:13:43;;;;;;;0.90;0.80;;;;;;;;;;5071657;28;20417;-47
2021/05/19 13:16:16;;;;;;;2.90;0.77;;;;;;;;;;5070581;28;20032;-48
2021/05/19 13:18:50;;;;;;;0.60;0.60;;;;;;;;;;5071518;28;20391;-47
2021/05/19 13:24:05;;;;;;;0.73;0.73;;;;;;;;;;5071391;28;20043;-47
2021/05/19 13:26:32;;;;;;;1.00;0.88;;;;;;;;;;5070856;28;20462;-48
2021/05/19 13:28:59;;;;;;;2.33;0.88;;;;;;;;;;5071227;28;20056;-48
2021/05/19 13:31:29;;;;;;;1.30;1.20;;;;;;;;;;5071084;28;20070;-47
2021/05/19 13:34:03;;;;;;;0.75;0.60;;;;;;;;;;5070863;28;20361;-48
2021/05/19 13:36:45;;;;;;;1.65;0.90;;;;;;;;;;5071196;28;20029;-48
2021/05/19 13:39:13;;;;;;;3.55;0.80;;;;;;;;;;5072981;28;20370;-48
2021/05/19 13:41:39;;;;;;;0.75;0.57;;;;;;;;;;5091011;28;20043;-48
2021/05/19 13:44:06;;;;;;;0.70;0.70;;;;;;;;;;5091446;28;20020;-48
2021/05/19 13:46:32;;;;;;;5.50;0.90;;;;;;;;;;5091177;28;20031;-48
2021/05/19 13:49:21;;;;;;;0.50;0.50;;;;;;;;;;5091226;28;20376;-48
2021/05/19 13:51:56;;;;;;;0.68;0.68;;;;;;;;;;5090706;28;20472;-48
2021/05/19 13:54:23;;;;;;;2.00;0.80;;;;;;;;;;5091635;28;20028;-47
2021/05/19 13:56:49;;;;;;;1.38;0.80;;;;;;;;;;5091507;28;20085;-47
2021/05/19 13:59:15;;;;;;;2.95;1.08;;;;;;;;;;5086571;28;20020;-48
2021/05/19 14:01:41;;;;;;;0.93;0.80;;;;;;;;;;5090749;28;20036;-47
2021/05/19 14:04:08;;;;;;;1.15;0.90;;;;;;;;;;5090859;28;20059;-48
2021/05/19 14:06:35;;;;;;;1.35;0.88;;;;;;;;;;5090781;28;20107;-47
2021/05/19 14:09:03;;;;;;;1.75;0.77;;;;;;;;;;5071795;28;20029;-48
2021/05/19 14:11:31;;;;;;;0.85;0.73;;;;;;;;;;5076471;28;20024;-49
2021/05/19 14:26:48;;;;;;;1.30;0.70;;;;;;;;;;5090500;28;20458;-47
2021/05/19 14:27:39;;;;;;;0.80;0.70;;;;;;;;;;5090906;28;20393;-49
2021/05/19 14:29:52;;;;;;;0.60;0.60;;;;;;;;;;5090211;28;20059;-47
2021/05/19 14:32:18;;;;;;;4.00;0.85;;;;;;;;;;5090722;28;20062;-48
2021/05/19 14:34:47;;;;;;;0.75;0.75;;;;;;;;;;5090823;28;20035;-48
2021/05/19 14:38:19;;;;;;;1.10;1.00;;;;;;;;;;5090556;28;20459;-48
2021/05/19 14:43:43;;;;;;;2.22;0.90;;;;;;;;;;5090644;28;20035;-47
2021/05/19 15:01:42;;;;;;;1.20;0.73;;;;;;;;;;5093818;28;20071;-48
2021/05/19 15:04:08;;;;;;;0.85;0.63;;;;;;;;;;5093860;28;20019;-48
2021/05/19 15:06:34;;;;;;;1.48;0.80;;;;;;;;;;5093529;28;20110;-48
2021/05/19 15:09:00;;;;;;;0.82;0.80;;;;;;;;;;5094349;28;20030;-48
2021/05/19 15:11:27;;;;;;;0.80;0.80;;;;;;;;;;5093705;28;20212;-48
2021/05/19 15:13:53;;;;;;;0.85;0.85;;;;;;;;;;5094083;28;20062;-48
2021/05/19 15:16:19;;;;;;;6.65;0.82;;;;;;;;;;5093825;28;20024;-48
2021/05/19 15:18:45;;;;;;;1.33;0.70;;;;;;;;;;5093861;28;20455;-48
2021/05/19 15:21:11;;;;;;;0.63;0.63;;;;;;;;;;5093462;28;20510;-47
2021/05/19 15:23:37;;;;;;;8.32;1.23;;;;;;;;;;5093545;28;20051;-48
2021/05/19 15:26:03;;;;;;;0.80;0.80;;;;;;;;;;5094167;28;20024;-48